Terminal Aerodrome Forecast
Issued by NWS Shreveport, LA

Home | Current Version | Previous Version | Text Only | Print | Product List | Glossary On
Versions: 1 2 3 4 5 6 7 8 9 10 11 12 13 14 15 16 17 18 19 20 21 22
000
FTUS44 KSHV 050500
TAFLFK
TAF
KLFK 050524Z 0506/0606 34012G20KT P6SM -RA OVC007
      TEMPO 0506/0510 4SM SHRA BR OVC015
     FM051000 02014G22KT P6SM -RA OVC010
      TEMPO 0511/0514 4SM -RAPL BR OVC020
     FM051400 03012G20KT P6SM BKN030
     FM051900 03010KT P6SM SKC
     FM060200 VRB04KT P6SM SKC=

USA.gov is the U.S. government's official web portal to all federal, state and local government web resources and services.